EDT,Max TemperatureF,Mean TemperatureF,Min TemperatureF,Max Dew PointF,MeanDew PointF,Min DewpointF,Max Humidity, Mean Humidity, Min Humidity, Max Sea Level PressureIn, Mean Sea Level PressureIn, Min Sea Level PressureIn, Max VisibilityMiles, Mean VisibilityMiles, Min VisibilityMiles, Max Wind SpeedMPH, Mean Wind SpeedMPH, Max Gust SpeedMPH,PrecipitationIn, CloudCover, Events, WindDirDegrees
2013-10-1,82,68,55,59,53,48,88,63,30,30.10,30.05,30.00,10,10,2,12,4,17,0.00,0,,246
2013-10-2,84,73,62,64,58,52,88,63,33,30.10,30.06,30.03,10,9,0,9,4,,0.00,1,,270
2013-10-3,89,76,62,66,59,50,88,61,27,30.12,30.10,30.07,10,9,0,7,3,,0.00,0,,204
2013-10-4,87,78,69,66,62,54,83,61,31,30.10,30.07,30.04,10,10,7,9,4,,0.00,0,,239
2013-10-5,91,78,66,70,62,54,88,60,29,30.10,30.07,30.04,10,8,0,9,3,,0.00,0,,230
2013-10-6,89,79,69,66,64,55,83,62,31,30.08,30.04,30.00,10,10,7,12,6,18,0.00,0,,185
2013-10-7,86,76,66,70,66,55,88,72,51,30.02,29.93,29.86,10,9,5,20,9,29,0.91,5,Rain-Thunderstorm,181
2013-10-8,68,65,62,55,48,43,68,54,43,30.23,30.17,30.03,10,10,10,15,9,25,0.00,5,,21
2013-10-9,68,65,62,61,56,50,83,73,56,30.21,30.14,30.05,10,9,5,23,12,38,0.84,6,Rain,40
2013-10-10,73,70,66,68,65,61,83,81,78,30.04,29.93,29.85,10,6,1,26,14,37,0.73,8,Rain-Thunderstorm,40
2013-10-11,75,72,69,72,67,66,94,84,73,29.92,29.86,29.81,10,5,0,7,3,,1.10,8,Rain-Thunderstorm,63
2013-10-12,75,72,69,70,67,64,94,86,78,30.07,29.99,29.90,10,6,1,15,6,20,0.05,8,Rain,48
2013-10-13,73,70,68,70,66,63,94,85,78,30.25,30.17,30.06,10,6,2,21,11,31,0.34,8,Rain,50
2013-10-14,75,68,60,63,60,55,88,76,53,30.28,30.24,30.20,10,9,7,20,9,23,0.00,5,Thunderstorm,27
2013-10-15,73,66,60,64,61,55,94,82,69,30.21,30.13,30.07,10,10,7,17,7,22,0.00,5,Rain,33
2013-10-16,78,72,66,66,64,63,94,81,61,30.06,30.01,29.96,10,9,7,7,4,,0.00,5,,16
2013-10-17,82,74,66,70,66,63,94,80,58,29.95,29.89,29.82,10,7,1,14,3,16,0.01,4,Rain,190
2013-10-18,77,65,53,68,52,45,94,61,38,30.04,29.97,29.82,10,10,10,17,8,26,0.00,2,,318
2013-10-19,71,62,53,68,60,50,94,81,64,30.02,29.92,29.82,10,10,7,9,3,,0.00,5,Rain,158
2013-10-20,69,58,46,64,46,37,93,61,37,30.13,30.02,29.85,10,10,10,17,8,22,0.00,1,,324
2013-10-21,71,58,44,55,47,41,93,68,37,30.18,30.12,30.02,10,10,7,8,2,,0.00,0,,147
2013-10-22,73,64,55,59,56,52,94,78,47,30.01,29.88,29.82,10,10,10,8,3,,0.00,0,Rain,232
2013-10-23,62,58,53,59,49,43,88,70,52,29.90,29.73,29.64,10,10,7,14,6,22,0.05,6,Rain,344
2013-10-24,60,53,46,43,36,30,76,50,31,30.14,30.04,29.89,10,10,7,17,9,22,0.00,4,,300
2013-10-25,60,51,42,39,38,34,81,63,39,30.33,30.24,30.13,10,10,10,17,5,25,0.00,2,,319
2013-10-26,64,50,37,45,36,32,93,61,32,30.31,30.19,30.01,10,10,10,20,5,28,0.00,1,,218
2013-10-27,66,56,46,46,41,36,87,56,32,30.16,30.06,29.99,10,10,10,13,7,21,0.00,1,,289
2013-10-28,73,58,44,55,49,41,94,77,46,30.27,30.21,30.15,10,9,0,9,2,,0.00,1,Fog,187
2013-10-29,71,60,48,55,51,46,94,78,43,30.36,30.31,30.26,10,7,0,9,2,,0.00,2,Fog,15
2013-10-30,71,62,53,61,55,50,94,76,53,30.33,30.26,30.19,10,9,4,8,3,,0.00,4,,166
2013-10-31,78,70,62,66,61,57,88,74,51,30.21,30.10,29.93,10,10,10,13,7,22,0.00,1,,192